createdAt,value
2023-02-19T17:08:33.516Z,12.91
2023-02-19T17:11:01.250Z,12.70
2023-02-19T17:13:28.459Z,12.31
2023-02-19T17:15:55.659Z,12.40
2023-02-19T17:18:22.940Z,12.16
2023-02-19T17:20:51.167Z,11.93
2023-02-19T17:23:18.363Z,11.66
2023-02-19T17:25:47.037Z,11.60
2023-02-19T17:28:14.215Z,11.69
2023-02-19T17:30:41.590Z,11.71
2023-02-19T17:33:08.788Z,11.86
2023-02-19T17:35:35.924Z,11.79
2023-02-19T17:38:03.159Z,11.62
2023-02-19T17:40:33.392Z,11.32
2023-02-19T17:43:02.334Z,11.29
2023-02-19T17:45:29.575Z,11.10
2023-02-19T17:47:56.706Z,11.33
2023-02-19T17:50:25.196Z,11.15
2023-02-19T17:52:52.473Z,10.96
2023-02-19T17:55:19.675Z,10.79
2023-02-19T17:57:46.916Z,10.73
2023-02-19T18:00:16.651Z,10.58
2023-02-19T18:02:43.776Z,10.73
2023-02-19T18:05:10.975Z,10.35
2023-02-19T18:07:38.193Z,10.51
2023-02-19T18:10:06.632Z,10.34
2023-02-19T18:12:33.873Z,10.23
2023-02-19T18:15:01.023Z,10.24
2023-02-19T18:17:29.664Z,10.28
2023-02-19T18:19:56.836Z,10.06
2023-02-19T18:22:23.971Z,9.96
2023-02-19T18:24:51.853Z,9.90
2023-02-19T18:27:19.332Z,10.00
2023-02-19T18:29:49.748Z,10.01
2023-02-19T18:32:16.903Z,10.01
2023-02-19T18:34:48.784Z,10.13
2023-02-19T18:37:16.146Z,10.00
2023-02-19T18:39:43.309Z,9.88
2023-02-19T18:42:10.529Z,9.97
2023-02-19T18:44:37.687Z,9.72
2023-02-19T18:47:04.974Z,9.96
2023-02-19T18:49:32.210Z,9.84
2023-02-19T18:52:00.811Z,9.89
2023-02-19T18:54:28.026Z,9.61
2023-02-19T18:56:55.320Z,9.51
2023-02-19T18:59:22.579Z,9.43
2023-02-19T19:01:49.858Z,9.48
2023-02-19T19:04:17.123Z,9.47
2023-02-19T19:06:44.340Z,9.37
2023-02-19T19:09:13.022Z,9.40
2023-02-19T19:11:40.270Z,9.75
2023-02-19T19:14:07.698Z,9.64
2023-02-19T19:16:34.909Z,9.81
2023-02-19T19:19:02.094Z,9.61
2023-02-19T19:21:29.258Z,9.53
2023-02-19T19:23:56.576Z,9.76
2023-02-19T19:26:25.216Z,9.77
2023-02-19T19:28:52.625Z,9.53
2023-02-19T19:31:19.976Z,9.21
2023-02-19T19:33:47.396Z,9.25
2023-02-19T19:36:14.696Z,9.20
2023-02-19T19:38:41.845Z,9.23
2023-02-19T19:41:09.097Z,9.09
2023-02-19T19:43:37.755Z,9.07
2023-02-19T19:46:05.309Z,9.04
2023-02-19T19:48:32.538Z,9.01
2023-02-19T19:50:59.708Z,9.22
2023-02-19T19:53:26.875Z,9.18
2023-02-19T19:55:53.953Z,9.00
2023-02-19T19:58:21.182Z,9.10
2023-02-19T20:00:49.748Z,9.00
2023-02-19T20:03:16.960Z,8.92
2023-02-19T20:05:44.342Z,9.07
2023-02-19T20:08:11.493Z,9.13
2023-02-19T20:10:38.673Z,9.35
2023-02-19T20:13:05.959Z,9.18
2023-02-19T20:15:33.264Z,9.14
2023-02-19T20:18:01.957Z,9.24
2023-02-19T20:20:29.395Z,9.30
2023-02-19T20:22:56.699Z,9.02
2023-02-19T20:25:23.931Z,8.69
2023-02-19T20:27:51.764Z,8.42
2023-02-19T20:30:19.124Z,8.25
2023-02-19T20:32:46.299Z,8.22
2023-02-19T20:35:15.437Z,8.07
2023-02-19T20:37:42.582Z,8.03
2023-02-19T20:40:11.532Z,8.07
2023-02-19T20:42:38.845Z,8.33
2023-02-19T20:45:06.353Z,8.37
2023-02-19T20:47:33.530Z,8.34
2023-02-19T20:50:00.762Z,8.39
2023-02-19T20:52:29.353Z,8.55
2023-02-19T20:54:56.671Z,8.27
2023-02-19T20:57:23.990Z,8.59
2023-02-19T20:59:51.229Z,8.27
2023-02-19T21:02:19.726Z,7.91
2023-02-19T21:04:46.932Z,7.96
2023-02-19T21:07:14.200Z,7.87
2023-02-19T21:09:43.450Z,7.94
2023-02-19T21:12:10.771Z,8.07
2023-02-19T21:14:37.984Z,7.84
2023-02-19T21:17:05.415Z,7.73
2023-02-19T21:19:32.648Z,7.71
2023-02-19T21:21:59.900Z,7.83
2023-02-19T21:24:27.161Z,8.14
2023-02-19T21:26:55.908Z,8.29
2023-02-19T21:29:23.151Z,8.23
2023-02-19T21:31:51.159Z,7.99
2023-02-19T21:34:19.775Z,7.61
2023-02-19T21:36:47.024Z,7.47
2023-02-19T21:39:15.477Z,7.28
2023-02-19T21:41:42.693Z,7.26
2023-02-19T21:44:11.412Z,7.26
2023-02-19T21:46:38.629Z,7.42
2023-02-19T21:49:05.953Z,7.22
